sensor_id;sensor_type;location;lat;lon;timestamp;pressure;altitude;pressure_sealevel;temperature;humidity
74329;BME280;62749;51.982;5.916;2023-01-28T00:00:17;102771.59;;;3.36;69.54
74329;BME280;62749;51.982;5.916;2023-01-28T00:02:46;102772.38;;;3.32;69.42
74329;BME280;62749;51.982;5.916;2023-01-28T00:05:19;102776.84;;;3.36;69.21
74329;BME280;62749;51.982;5.916;2023-01-28T00:07:49;102777.53;;;3.28;69.39
74329;BME280;62749;51.982;5.916;2023-01-28T00:10:19;102755.78;;;3.30;69.54
74329;BME280;62749;51.982;5.916;2023-01-28T00:12:48;102775.38;;;3.52;69.20
74329;BME280;62749;51.982;5.916;2023-01-28T00:15:18;102779.13;;;3.65;69.32
74329;BME280;62749;51.982;5.916;2023-01-28T00:17:48;102780.16;;;3.74;69.27
74329;BME280;62749;51.982;5.916;2023-01-28T00:20:20;102774.22;;;3.84;69.35
74329;BME280;62749;51.982;5.916;2023-01-28T00:22:49;102779.50;;;3.86;69.34
74329;BME280;62749;51.982;5.916;2023-01-28T00:25:19;102768.22;;;3.90;69.03
74329;BME280;62749;51.982;5.916;2023-01-28T00:27:49;102765.66;;;3.91;69.28
74329;BME280;62749;51.982;5.916;2023-01-28T00:30:18;102765.59;;;3.90;69.04
74329;BME280;62749;51.982;5.916;2023-01-28T00:32:48;102761.09;;;3.81;69.04
74329;BME280;62749;51.982;5.916;2023-01-28T00:35:20;102765.66;;;3.91;70.21
74329;BME280;62749;51.982;5.916;2023-01-28T00:37:50;102768.19;;;3.87;69.71
74329;BME280;62749;51.982;5.916;2023-01-28T00:40:19;102774.41;;;3.93;69.24
74329;BME280;62749;51.982;5.916;2023-01-28T00:42:48;102776.13;;;3.94;70.26
74329;BME280;62749;51.982;5.916;2023-01-28T00:45:18;102780.56;;;3.98;70.24
74329;BME280;62749;51.982;5.916;2023-01-28T00:47:47;102793.66;;;3.98;70.21
74329;BME280;62749;51.982;5.916;2023-01-28T00:50:17;102790.13;;;3.95;70.69
74329;BME280;62749;51.982;5.916;2023-01-28T00:52:49;102787.50;;;3.95;71.02
74329;BME280;62749;51.982;5.916;2023-01-28T00:55:18;102796.19;;;3.94;71.00
74329;BME280;62749;51.982;5.916;2023-01-28T00:57:48;102791.81;;;3.91;71.07
74329;BME280;62749;51.982;5.916;2023-01-28T01:00:18;102783.97;;;3.94;71.23
74329;BME280;62749;51.982;5.916;2023-01-28T01:02:52;102784.81;;;3.92;71.39
74329;BME280;62749;51.982;5.916;2023-01-28T01:05:21;102790.75;;;3.83;71.39
74329;BME280;62749;51.982;5.916;2023-01-28T01:07:54;102789.91;;;3.84;71.42
74329;BME280;62749;51.982;5.916;2023-01-28T01:10:23;102790.81;;;3.84;71.04
74329;BME280;62749;51.982;5.916;2023-01-28T01:12:53;102791.66;;;3.83;71.15
74329;BME280;62749;51.982;5.916;2023-01-28T01:15:23;102798.69;;;3.88;71.68
74329;BME280;62749;51.982;5.916;2023-01-28T01:17:53;102794.28;;;3.83;71.24
74329;BME280;62749;51.982;5.916;2023-01-28T01:20:25;102789.81;;;3.78;71.18
74329;BME280;62749;51.982;5.916;2023-01-28T01:22:58;102787.06;;;3.72;71.38
74329;BME280;62749;51.982;5.916;2023-01-28T01:25:27;102795.03;;;3.78;71.27
74329;BME280;62749;51.982;5.916;2023-01-28T01:27:57;102794.19;;;3.79;70.83
74329;BME280;62749;51.982;5.916;2023-01-28T01:30:26;102796.47;;;3.62;70.93
74329;BME280;62749;51.982;5.916;2023-01-28T01:32:56;102795.59;;;3.61;70.59
74329;BME280;62749;51.982;5.916;2023-01-28T01:35:26;102804.44;;;3.66;71.08
74329;BME280;62749;51.982;5.916;2023-01-28T01:37:58;102783.41;;;3.62;70.49
74329;BME280;62749;51.982;5.916;2023-01-28T01:40:27;102794.66;;;3.58;69.99
74329;BME280;62749;51.982;5.916;2023-01-28T01:42:57;102785.09;;;3.58;70.25
74329;BME280;62749;51.982;5.916;2023-01-28T01:45:31;102784.16;;;3.56;70.22
74329;BME280;62749;51.982;5.916;2023-01-28T01:48:06;102785.91;;;3.54;70.09
74329;BME280;62749;51.982;5.916;2023-01-28T01:50:45;102784.22;;;3.59;69.62
74329;BME280;62749;51.982;5.916;2023-01-28T01:53:21;102786.75;;;3.55;70.10
74329;BME280;62749;51.982;5.916;2023-01-28T01:55:57;102785.13;;;3.60;69.14
74329;BME280;62749;51.982;5.916;2023-01-28T01:58:32;102788.59;;;3.59;69.40
74329;BME280;62749;51.982;5.916;2023-01-28T02:01:05;102798.22;;;3.63;69.12
74329;BME280;62749;51.982;5.916;2023-01-28T02:03:40;102800.91;;;3.66;68.65
74329;BME280;62749;51.982;5.916;2023-01-28T02:06:16;102790.38;;;3.63;68.13
74329;BME280;62749;51.982;5.916;2023-01-28T02:08:48;102798.97;;;3.56;67.69
74329;BME280;62749;51.982;5.916;2023-01-28T02:11:17;102789.38;;;3.55;67.76
74329;BME280;62749;51.982;5.916;2023-01-28T02:13:51;102788.75;;;3.66;67.89
74329;BME280;62749;51.982;5.916;2023-01-28T02:16:24;102788.69;;;3.65;67.28
74329;BME280;62749;51.982;5.916;2023-01-28T02:18:54;102787.78;;;3.63;68.17
74329;BME280;62749;51.982;5.916;2023-01-28T02:24:54;102801.84;;;3.69;67.93
74329;BME280;62749;51.982;5.916;2023-01-28T02:27:36;102800.13;;;3.70;68.20
74329;BME280;62749;51.982;5.916;2023-01-28T02:30:20;102794.75;;;3.61;68.69
74329;BME280;62749;51.982;5.916;2023-01-28T02:32:56;102799.22;;;3.68;69.10
74329;BME280;62749;51.982;5.916;2023-01-28T02:35:34;102805.28;;;3.65;68.68
74329;BME280;62749;51.982;5.916;2023-01-28T02:38:10;102800.75;;;3.57;69.76
74329;BME280;62749;51.982;5.916;2023-01-28T02:40:43;102805.94;;;3.55;69.31
74329;BME280;62749;51.982;5.916;2023-01-28T02:43:32;102817.25;;;3.54;69.76
74329;BME280;62749;51.982;5.916;2023-01-28T02:46:21;102802.38;;;3.51;69.89
74329;BME280;62749;51.982;5.916;2023-01-28T02:49:07;102810.13;;;3.47;70.21
74329;BME280;62749;51.982;5.916;2023-01-28T02:51:52;102804.06;;;3.49;70.79
74329;BME280;62749;51.982;5.916;2023-01-28T02:54:36;102790.06;;;3.44;70.65
74329;BME280;62749;51.982;5.916;2023-01-28T02:57:19;102789.91;;;3.38;70.80
74329;BME280;62749;51.982;5.916;2023-01-28T03:00:01;102795.22;;;3.41;70.84
74329;BME280;62749;51.982;5.916;2023-01-28T03:02:41;102804.81;;;3.42;70.13
74329;BME280;62749;51.982;5.916;2023-01-28T03:05:22;102802.13;;;3.37;70.94
74329;BME280;62749;51.982;5.916;2023-01-28T03:07:55;102811.78;;;3.42;70.99
74329;BME280;62749;51.982;5.916;2023-01-28T03:10:27;102806.50;;;3.38;71.44
74329;BME280;62749;51.982;5.916;2023-01-28T03:12:57;102805.59;;;3.38;71.09
74329;BME280;62749;51.982;5.916;2023-01-28T03:15:42;102808.84;;;3.26;71.13
74329;BME280;62749;51.982;5.916;2023-01-28T03:18:32;102803.75;;;3.32;70.94
74329;BME280;62749;51.982;5.916;2023-01-28T03:21:24;102790.56;;;3.26;70.29
74329;BME280;62749;51.982;5.916;2023-01-28T03:24:10;102804.56;;;3.30;70.85
74329;BME280;62749;51.982;5.916;2023-01-28T03:26:57;102810.56;;;3.24;70.66
74329;BME280;62749;51.982;5.916;2023-01-28T03:29:45;102807.09;;;3.27;71.34
74329;BME280;62749;51.982;5.916;2023-01-28T03:32:30;102797.56;;;3.27;70.91
74329;BME280;62749;51.982;5.916;2023-01-28T03:35:17;102800.22;;;3.30;70.73
74329;BME280;62749;51.982;5.916;2023-01-28T03:38:01;102803.66;;;3.29;70.63
74329;BME280;62749;51.982;5.916;2023-01-28T03:40:48;102797.75;;;3.36;70.44
74329;BME280;62749;51.982;5.916;2023-01-28T03:43:18;102801.19;;;3.35;70.11
74329;BME280;62749;51.982;5.916;2023-01-28T03:45:48;102785.28;;;3.25;70.37
74329;BME280;62749;51.982;5.916;2023-01-28T03:48:20;102789.66;;;3.26;70.61
74329;BME280;62749;51.982;5.916;2023-01-28T03:50:54;102807.16;;;3.28;69.83
74329;BME280;62749;51.982;5.916;2023-01-28T03:53:25;102811.47;;;3.26;70.53
74329;BME280;62749;51.982;5.916;2023-01-28T03:55:55;102820.06;;;3.20;68.95
74329;BME280;62749;51.982;5.916;2023-01-28T03:58:25;102815.53;;;3.13;69.33
74329;BME280;62749;51.982;5.916;2023-01-28T04:01:12;102818.06;;;3.10;69.63
74329;BME280;62749;51.982;5.916;2023-01-28T04:03:41;102815.59;;;3.15;69.62
74329;BME280;62749;51.982;5.916;2023-01-28T04:06:13;102810.47;;;3.21;69.73
74329;BME280;62749;51.982;5.916;2023-01-28T04:08:43;102826.16;;;3.21;69.22
74329;BME280;62749;51.982;5.916;2023-01-28T04:11:14;102813.94;;;3.20;69.81
74329;BME280;62749;51.982;5.916;2023-01-28T04:13:46;102819.22;;;3.21;69.61
74329;BME280;62749;51.982;5.916;2023-01-28T04:16:17;102815.69;;;3.21;69.88
74329;BME280;62749;51.982;5.916;2023-01-28T04:18:47;102823.59;;;3.22;69.36
74329;BME280;62749;51.982;5.916;2023-01-28T04:21:19;102821.88;;;3.25;69.85
74329;BME280;62749;51.982;5.916;2023-01-28T04:23:48;102813.22;;;3.27;69.16
74329;BME280;62749;51.982;5.916;2023-01-28T04:26:18;102809.38;;;3.10;68.27
74329;BME280;62749;51.982;5.916;2023-01-28T04:28:47;102812.06;;;3.13;69.32
74329;BME280;62749;51.982;5.916;2023-01-28T04:31:16;102809.44;;;3.13;68.51
74329;BME280;62749;51.982;5.916;2023-01-28T04:33:46;102817.13;;;3.06;68.23
74329;BME280;62749;51.982;5.916;2023-01-28T04:36:15;102824.03;;;3.03;67.98
74329;BME280;62749;51.982;5.916;2023-01-28T04:38:47;102821.16;;;2.90;68.49
74329;BME280;62749;51.982;5.916;2023-01-28T04:41:17;102831.59;;;2.92;68.51
74329;BME280;62749;51.982;5.916;2023-01-28T04:43:46;102827.38;;;2.96;68.88
74329;BME280;62749;51.982;5.916;2023-01-28T04:46:16;102823.69;;;2.87;69.05
74329;BME280;62749;51.982;5.916;2023-01-28T04:48:46;102831.03;;;2.67;68.53
74329;BME280;62749;51.982;5.916;2023-01-28T04:51:15;102831.88;;;2.65;69.05
74329;BME280;62749;51.982;5.916;2023-01-28T04:53:47;102833.84;;;2.75;68.34
74329;BME280;62749;51.982;5.916;2023-01-28T04:56:16;102839.41;;;2.90;68.14
74329;BME280;62749;51.982;5.916;2023-01-28T04:58:46;102845.75;;;3.00;67.98
74329;BME280;62749;51.982;5.916;2023-01-28T05:01:15;102850.25;;;3.07;67.70
74329;BME280;62749;51.982;5.916;2023-01-28T05:03:45;102848.31;;;2.99;67.61
74329;BME280;62749;51.982;5.916;2023-01-28T05:06:14;102854.50;;;3.02;68.07
74329;BME280;62749;51.982;5.916;2023-01-28T05:08:43;102841.38;;;3.01;68.05
74329;BME280;62749;51.982;5.916;2023-01-28T05:11:16;102844.91;;;3.03;67.65
74329;BME280;62749;51.982;5.916;2023-01-28T05:13:46;102840.47;;;2.99;68.18
74329;BME280;62749;51.982;5.916;2023-01-28T05:16:15;102842.88;;;2.89;68.00
74329;BME280;62749;51.982;5.916;2023-01-28T05:18:44;102838.50;;;2.88;67.25
74329;BME280;62749;51.982;5.916;2023-01-28T05:21:19;102822.72;;;2.84;67.53
74329;BME280;62749;51.982;5.916;2023-01-28T05:23:48;102838.41;;;2.85;66.14
74329;BME280;62749;51.982;5.916;2023-01-28T05:26:20;102838.13;;;2.73;66.21
74329;BME280;62749;51.982;5.916;2023-01-28T05:28:50;102827.19;;;2.50;66.57
74329;BME280;62749;51.982;5.916;2023-01-28T05:31:19;102827.66;;;2.35;66.87
74329;BME280;62749;51.982;5.916;2023-01-28T05:33:48;102834.00;;;2.44;67.32
74329;BME280;62749;51.982;5.916;2023-01-28T05:36:18;102830.00;;;2.59;67.31
74329;BME280;62749;51.982;5.916;2023-01-28T05:38:47;102828.97;;;2.52;66.84
74329;BME280;62749;51.982;5.916;2023-01-28T05:41:19;102823.34;;;2.35;67.20
74329;BME280;62749;51.982;5.916;2023-01-28T05:43:49;102820.09;;;2.45;66.83
74329;BME280;62749;51.982;5.916;2023-01-28T05:46:18;102829.88;;;2.54;66.76
74329;BME280;62749;51.982;5.916;2023-01-28T05:48:48;102814.50;;;2.30;66.62
74329;BME280;62749;51.982;5.916;2023-01-28T05:51:17;102828.84;;;2.48;67.03
74329;BME280;62749;51.982;5.916;2023-01-28T05:53:46;102834.69;;;2.37;66.30
74329;BME280;62749;51.982;5.916;2023-01-28T05:56:16;102836.63;;;2.46;66.63
74329;BME280;62749;51.982;5.916;2023-01-28T05:59:06;102840.41;;;2.57;65.71
74329;BME280;62749;51.982;5.916;2023-01-28T06:01:36;102845.75;;;2.64;65.71
74329;BME280;62749;51.982;5.916;2023-01-28T06:04:05;102841.56;;;2.70;66.52
74329;BME280;62749;51.982;5.916;2023-01-28T06:06:35;102834.63;;;2.71;66.11
74329;BME280;62749;51.982;5.916;2023-01-28T06:09:04;102838.66;;;2.58;66.08
74329;BME280;62749;51.982;5.916;2023-01-28T06:11:34;102831.78;;;2.61;66.08
74329;BME280;62749;51.982;5.916;2023-01-28T06:14:06;102841.44;;;2.64;66.64
74329;BME280;62749;51.982;5.916;2023-01-28T06:16:35;102839.50;;;2.57;67.03
74329;BME280;62749;51.982;5.916;2023-01-28T06:19:04;102850.03;;;2.60;66.30
74329;BME280;62749;51.982;5.916;2023-01-28T06:21:34;102844.91;;;2.63;65.83
74329;BME280;62749;51.982;5.916;2023-01-28T06:24:03;102840.56;;;2.28;66.28
74329;BME280;62749;51.982;5.916;2023-01-28T06:26:34;102840.44;;;2.24;66.28
74329;BME280;62749;51.982;5.916;2023-01-28T06:29:06;102844.84;;;2.26;66.64
74329;BME280;62749;51.982;5.916;2023-01-28T06:31:35;102836.00;;;2.20;66.46
74329;BME280;62749;51.982;5.916;2023-01-28T06:34:05;102827.00;;;2.08;67.10
74329;BME280;62749;51.982;5.916;2023-01-28T06:36:34;102837.38;;;2.07;67.22
74329;BME280;62749;51.982;5.916;2023-01-28T06:39:04;102841.94;;;2.14;67.42
74329;BME280;62749;51.982;5.916;2023-01-28T06:41:34;102843.97;;;2.26;67.07
74329;BME280;62749;51.982;5.916;2023-01-28T06:44:06;102834.44;;;2.28;66.28
74329;BME280;62749;51.982;5.916;2023-01-28T06:46:35;102843.97;;;2.26;66.71
74329;BME280;62749;51.982;5.916;2023-01-28T06:49:05;102846.41;;;2.18;67.01
74329;BME280;62749;51.982;5.916;2023-01-28T06:51:34;102849.13;;;2.23;66.54
74329;BME280;62749;51.982;5.916;2023-01-28T06:54:04;102851.94;;;2.32;67.30
74329;BME280;62749;51.982;5.916;2023-01-28T06:56:33;102854.88;;;2.44;67.09
74329;BME280;62749;51.982;5.916;2023-01-28T06:59:06;102848.63;;;2.38;66.38
74329;BME280;62749;51.982;5.916;2023-01-28T07:01:35;102843.50;;;2.42;66.68
74329;BME280;62749;51.982;5.916;2023-01-28T07:04:04;102849.75;;;2.49;66.93
74329;BME280;62749;51.982;5.916;2023-01-28T07:06:34;102861.19;;;2.54;66.24
74329;BME280;62749;51.982;5.916;2023-01-28T07:09:03;102868.22;;;2.57;65.40
74329;BME280;62749;51.982;5.916;2023-01-28T07:11:33;102873.41;;;2.55;66.63
74329;BME280;62749;51.982;5.916;2023-01-28T07:14:02;102886.47;;;2.57;66.63
74329;BME280;62749;51.982;5.916;2023-01-28T07:16:34;102890.84;;;2.56;66.51
74329;BME280;62749;51.982;5.916;2023-01-28T07:19:04;102882.00;;;2.51;65.98
74329;BME280;62749;51.982;5.916;2023-01-28T07:21:33;102889.63;;;2.43;66.23
74329;BME280;62749;51.982;5.916;2023-01-28T07:24:02;102898.25;;;2.41;66.50
74329;BME280;62749;51.982;5.916;2023-01-28T07:26:32;102876.28;;;2.31;66.71
74329;BME280;62749;51.982;5.916;2023-01-28T07:29:01;102894.84;;;2.43;67.24
74329;BME280;62749;51.982;5.916;2023-01-28T07:31:33;102897.66;;;2.51;66.98
74329;BME280;62749;51.982;5.916;2023-01-28T07:34:03;102888.47;;;2.32;67.06
74329;BME280;62749;51.982;5.916;2023-01-28T07:36:32;102891.31;;;2.41;66.85
74329;BME280;62749;51.982;5.916;2023-01-28T07:39:02;102906.13;;;2.42;66.65
74329;BME280;62749;51.982;5.916;2023-01-28T07:41:32;102904.31;;;2.40;66.89
74329;BME280;62749;51.982;5.916;2023-01-28T07:44:01;102900.97;;;2.44;67.52
74329;BME280;62749;51.982;5.916;2023-01-28T07:46:30;102899.91;;;2.37;66.87
74329;BME280;62749;51.982;5.916;2023-01-28T07:49:03;102898.16;;;2.36;67.31
74329;BME280;62749;51.982;5.916;2023-01-28T07:51:32;102889.22;;;2.28;66.94
74329;BME280;62749;51.982;5.916;2023-01-28T07:54:01;102911.84;;;2.29;67.26
74329;BME280;62749;51.982;5.916;2023-01-28T07:56:55;102912.56;;;2.22;67.52
74329;BME280;62749;51.982;5.916;2023-01-28T07:59:25;102908.31;;;2.27;66.62
74329;BME280;62749;51.982;5.916;2023-01-28T08:01:55;102913.81;;;2.36;67.69
74329;BME280;62749;51.982;5.916;2023-01-28T08:04:27;102918.53;;;2.51;67.12
74329;BME280;62749;51.982;5.916;2023-01-28T08:06:56;102928.97;;;2.51;66.94
74329;BME280;62749;51.982;5.916;2023-01-28T08:09:26;102932.53;;;2.55;67.32
74329;BME280;62749;51.982;5.916;2023-01-28T08:11:55;102927.47;;;2.61;66.93
74329;BME280;62749;51.982;5.916;2023-01-28T08:14:24;102928.31;;;2.60;66.81
74329;BME280;62749;51.982;5.916;2023-01-28T08:16:54;102931.03;;;2.63;67.37
74329;BME280;62749;51.982;5.916;2023-01-28T08:19:23;102925.31;;;2.44;66.93
74329;BME280;62749;51.982;5.916;2023-01-28T08:21:55;102934.03;;;2.45;66.87
74329;BME280;62749;51.982;5.916;2023-01-28T08:24:25;102935.09;;;2.52;67.34
74329;BME280;62749;51.982;5.916;2023-01-28T08:26:54;102920.44;;;2.58;67.40
74329;BME280;62749;51.982;5.916;2023-01-28T08:29:24;102940.47;;;2.59;66.83
74329;BME280;62749;51.982;5.916;2023-01-28T08:31:53;102940.44;;;2.58;66.60
74329;BME280;62749;51.982;5.916;2023-01-28T08:34:22;102942.31;;;2.62;66.83
74329;BME280;62749;51.982;5.916;2023-01-28T08:36:52;102937.94;;;2.63;66.55
74329;BME280;62749;51.982;5.916;2023-01-28T08:39:24;102947.34;;;2.56;67.18
74329;BME280;62749;51.982;5.916;2023-01-28T08:41:53;102943.59;;;2.46;66.79
74329;BME280;62749;51.982;5.916;2023-01-28T08:44:22;102936.09;;;2.58;66.81
74329;BME280;62749;51.982;5.916;2023-01-28T08:46:52;102956.13;;;2.59;66.74
74329;BME280;62749;51.982;5.916;2023-01-28T08:49:21;102956.00;;;2.55;66.93
74329;BME280;62749;51.982;5.916;2023-01-28T08:51:51;102964.53;;;2.48;67.12
74329;BME280;62749;51.982;5.916;2023-01-28T08:54:20;102936.97;;;2.24;67.39
74329;BME280;62749;51.982;5.916;2023-01-28T08:56:52;102948.50;;;2.34;67.22
74329;BME280;62749;51.982;5.916;2023-01-28T08:59:22;102959.13;;;2.41;66.60
74329;BME280;62749;51.982;5.916;2023-01-28T09:01:51;102964.44;;;2.44;67.21
74329;BME280;62749;51.982;5.916;2023-01-28T09:04:21;102967.78;;;2.39;67.38
74329;BME280;62749;51.982;5.916;2023-01-28T09:06:50;102959.22;;;2.43;67.32
74329;BME280;62749;51.982;5.916;2023-01-28T09:09:19;102960.97;;;2.44;67.33
74329;BME280;62749;51.982;5.916;2023-01-28T09:11:51;102945.38;;;2.47;66.84
74329;BME280;62749;51.982;5.916;2023-01-28T09:14:21;102963.84;;;2.55;66.89
74329;BME280;62749;51.982;5.916;2023-01-28T09:16:50;102962.16;;;2.57;67.24
74329;BME280;62749;51.982;5.916;2023-01-28T09:19:19;102970.91;;;2.57;67.19
74329;BME280;62749;51.982;5.916;2023-01-28T09:21:49;102984.09;;;2.64;67.10
74329;BME280;62749;51.982;5.916;2023-01-28T09:24:18;102993.59;;;2.61;67.09
74329;BME280;62749;51.982;5.916;2023-01-28T09:26:48;102970.03;;;2.58;66.94
74329;BME280;62749;51.982;5.916;2023-01-28T09:29:21;102976.16;;;2.60;67.01
74329;BME280;62749;51.982;5.916;2023-01-28T09:31:50;102989.50;;;2.71;67.06
74329;BME280;62749;51.982;5.916;2023-01-28T09:34:20;102999.72;;;2.62;66.79
74329;BME280;62749;51.982;5.916;2023-01-28T09:36:49;102996.13;;;2.58;66.64
74329;BME280;62749;51.982;5.916;2023-01-28T09:39:18;102987.41;;;2.56;66.86
74329;BME280;62749;51.982;5.916;2023-01-28T09:41:59;102995.88;;;2.49;67.35
74329;BME280;62749;51.982;5.916;2023-01-28T09:44:50;102996.19;;;2.60;68.06
74329;BME280;62749;51.982;5.916;2023-01-28T09:47:25;103001.41;;;2.60;66.95
74329;BME280;62749;51.982;5.916;2023-01-28T09:49:58;102986.56;;;2.57;67.17
74329;BME280;62749;51.982;5.916;2023-01-28T09:52:33;102995.59;;;2.72;67.92
74329;BME280;62749;51.982;5.916;2023-01-28T09:55:10;103008.81;;;2.76;67.35
74329;BME280;62749;51.982;5.916;2023-01-28T09:57:46;103006.13;;;2.75;67.68
74329;BME280;62749;51.982;5.916;2023-01-28T10:00:23;103014.19;;;2.84;67.36
74329;BME280;62749;51.982;5.916;2023-01-28T10:03:26;103016.47;;;2.72;67.27
74329;BME280;62749;51.982;5.916;2023-01-28T10:06:06;103015.00;;;2.82;66.98
74329;BME280;62749;51.982;5.916;2023-01-28T10:09:00;103003.31;;;2.67;66.38
74329;BME280;62749;51.982;5.916;2023-01-28T10:11:45;102996.91;;;2.54;67.11
74329;BME280;62749;51.982;5.916;2023-01-28T10:14:30;103006.25;;;2.80;66.71
74329;BME280;62749;51.982;5.916;2023-01-28T10:17:10;103014.34;;;2.89;66.31
74329;BME280;62749;51.982;5.916;2023-01-28T10:19:43;103017.38;;;2.72;66.52
74329;BME280;62749;51.982;5.916;2023-01-28T10:22:19;102997.69;;;2.85;66.12
74329;BME280;62749;51.982;5.916;2023-01-28T10:24:55;103005.88;;;2.99;65.73
74329;BME280;62749;51.982;5.916;2023-01-28T10:27:29;103004.97;;;2.97;65.57
74329;BME280;62749;51.982;5.916;2023-01-28T10:30:16;103007.69;;;3.03;65.88
74329;BME280;62749;51.982;5.916;2023-01-28T10:32:52;103006.28;;;3.15;66.13
74329;BME280;62749;51.982;5.916;2023-01-28T10:35:24;103009.00;;;3.21;64.68
74329;BME280;62749;51.982;5.916;2023-01-28T10:38:00;102996.16;;;3.30;65.36
74329;BME280;62749;51.982;5.916;2023-01-28T10:40:32;102997.94;;;3.31;65.13
74329;BME280;62749;51.982;5.916;2023-01-28T10:43:02;102999.41;;;3.20;65.17
74329;BME280;62749;51.982;5.916;2023-01-28T10:45:39;102996.78;;;3.20;66.10
74329;BME280;62749;51.982;5.916;2023-01-28T10:48:21;102985.22;;;3.10;65.78
74329;BME280;62749;51.982;5.916;2023-01-28T10:50:53;102984.94;;;3.34;66.31
74329;BME280;62749;51.982;5.916;2023-01-28T10:53:34;102986.91;;;3.43;65.46
74329;BME280;62749;51.982;5.916;2023-01-28T10:56:07;102974.09;;;3.54;65.48
74329;BME280;62749;51.982;5.916;2023-01-28T10:58:49;102973.94;;;3.49;65.14
74329;BME280;62749;51.982;5.916;2023-01-28T11:01:23;102959.16;;;3.48;65.35
74329;BME280;62749;51.982;5.916;2023-01-28T11:03:57;102958.84;;;3.74;65.31
74329;BME280;62749;51.982;5.916;2023-01-28T11:06:28;102956.22;;;3.76;64.67
74329;BME280;62749;51.982;5.916;2023-01-28T11:08:58;102948.50;;;3.82;64.05
74329;BME280;62749;51.982;5.916;2023-01-28T11:11:29;102947.34;;;3.67;64.04
74329;BME280;62749;51.982;5.916;2023-01-28T11:13:58;102951.78;;;3.72;64.35
74329;BME280;62749;51.982;5.916;2023-01-28T11:16:27;102946.81;;;3.84;64.64
74329;BME280;62749;51.982;5.916;2023-01-28T11:19:04;102944.09;;;3.79;64.20
74329;BME280;62749;51.982;5.916;2023-01-28T11:21:34;102933.38;;;3.65;64.71
74329;BME280;62749;51.982;5.916;2023-01-28T11:24:12;102929.34;;;3.83;63.85
74329;BME280;62749;51.982;5.916;2023-01-28T11:26:48;102916.25;;;3.80;63.75
74329;BME280;62749;51.982;5.916;2023-01-28T11:29:23;102902.78;;;3.61;64.07
74329;BME280;62749;51.982;5.916;2023-01-28T11:31:55;102888.78;;;3.58;64.47
74329;BME280;62749;51.982;5.916;2023-01-28T11:34:32;102876.66;;;3.63;64.98
74329;BME280;62749;51.982;5.916;2023-01-28T11:37:09;102856.72;;;3.68;63.63
74329;BME280;62749;51.982;5.916;2023-01-28T11:39:41;102866.50;;;3.77;63.40
74329;BME280;62749;51.982;5.916;2023-01-28T11:42:15;102861.72;;;3.57;64.67
74329;BME280;62749;51.982;5.916;2023-01-28T11:44:47;102876.47;;;3.53;64.95
74329;BME280;62749;51.982;5.916;2023-01-28T11:47:42;102857.94;;;3.43;65.57
74329;BME280;62749;51.982;5.916;2023-01-28T11:50:28;102852.41;;;3.27;65.63
74329;BME280;62749;51.982;5.916;2023-01-28T11:53:20;102860.56;;;3.43;65.04
74329;BME280;62749;51.982;5.916;2023-01-28T11:56:11;102871.97;;;3.46;65.51
74329;BME280;62749;51.982;5.916;2023-01-28T11:58:55;102855.53;;;3.52;65.30
74329;BME280;62749;51.982;5.916;2023-01-28T12:01:41;102866.25;;;3.64;65.00
74329;BME280;62749;51.982;5.916;2023-01-28T12:04:22;102869.03;;;3.74;64.49
74329;BME280;62749;51.982;5.916;2023-01-28T12:07:13;102871.09;;;3.90;63.86
74329;BME280;62749;51.982;5.916;2023-01-28T12:09:53;102881.97;;;4.12;63.92
74329;BME280;62749;51.982;5.916;2023-01-28T12:12:42;102870.50;;;4.05;63.99
74329;BME280;62749;51.982;5.916;2023-01-28T12:15:33;102880.41;;;4.22;63.51
74329;BME280;62749;51.982;5.916;2023-01-28T12:21:04;102882.66;;;4.51;62.53
74329;BME280;62749;51.982;5.916;2023-01-28T12:23:52;102889.03;;;4.68;63.14
74329;BME280;62749;51.982;5.916;2023-01-28T12:26:38;102870.53;;;4.57;61.81
74329;BME280;62749;51.982;5.916;2023-01-28T12:29:22;102885.22;;;4.49;61.66
74329;BME280;62749;51.982;5.916;2023-01-28T12:32:07;102888.47;;;4.36;63.13
74329;BME280;62749;51.982;5.916;2023-01-28T12:38:04;102870.22;;;4.39;62.00
74329;BME280;62749;51.982;5.916;2023-01-28T12:40:55;102875.66;;;4.50;62.35
74329;BME280;62749;51.982;5.916;2023-01-28T12:43:44;102873.25;;;4.65;61.71
74329;BME280;62749;51.982;5.916;2023-01-28T12:46:28;102878.47;;;4.62;62.48
74329;BME280;62749;51.982;5.916;2023-01-28T12:49:06;102878.63;;;4.19;63.07
74329;BME280;62749;51.982;5.916;2023-01-28T12:51:51;102885.56;;;4.17;62.95
74329;BME280;62749;51.982;5.916;2023-01-28T12:54:28;102894.34;;;4.22;62.91
74329;BME280;62749;51.982;5.916;2023-01-28T12:57:02;102889.13;;;4.22;63.52
74329;BME280;62749;51.982;5.916;2023-01-28T12:59:41;102884.22;;;4.41;62.76
74329;BME280;62749;51.982;5.916;2023-01-28T13:02:23;102882.19;;;4.24;63.17
74329;BME280;62749;51.982;5.916;2023-01-28T13:05:03;102877.00;;;4.26;63.32
74329;BME280;62749;51.982;5.916;2023-01-28T13:07:41;102864.63;;;4.17;63.63
74329;BME280;62749;51.982;5.916;2023-01-28T13:10:21;102859.28;;;4.11;63.52
74329;BME280;62749;51.982;5.916;2023-01-28T13:13:16;102869.88;;;4.19;63.27
74329;BME280;62749;51.982;5.916;2023-01-28T13:15:47;102861.47;;;4.37;63.56
74329;BME280;62749;51.982;5.916;2023-01-28T13:18:32;102853.94;;;4.55;62.38
74329;BME280;62749;51.982;5.916;2023-01-28T13:21:02;102852.06;;;4.48;63.14
74329;BME280;62749;51.982;5.916;2023-01-28T13:23:38;102844.38;;;4.60;62.70
74329;BME280;62749;51.982;5.916;2023-01-28T13:26:24;102837.44;;;4.61;62.62
74329;BME280;62749;51.982;5.916;2023-01-28T13:29:18;102827.56;;;4.46;62.56
74329;BME280;62749;51.982;5.916;2023-01-28T13:31:50;102815.31;;;4.42;63.68
74329;BME280;62749;51.982;5.916;2023-01-28T13:34:34;102805.72;;;4.42;62.49
74329;BME280;62749;51.982;5.916;2023-01-28T13:37:23;102778.63;;;4.39;62.05
74329;BME280;62749;51.982;5.916;2023-01-28T13:40:03;102785.00;;;4.56;62.63
74329;BME280;62749;51.982;5.916;2023-01-28T13:42:35;102781.50;;;4.56;61.83
74329;BME280;62749;51.982;5.916;2023-01-28T13:45:20;102795.34;;;4.49;62.63